• Join FlightAware (Why Join?)
  • Login
  • US Flag 
09:38AM EDT


 

Airport Tracker/Info


-or-


 

Live Flight TrackerFlight Track Log ✈ AWE1940 ✈ 28-Apr-2013 ✈ KCLT - KALB

Flight Track Log - Related Links

Times and Time Zones

All times are in EDT time to prevent confusion due to time zone crossing. See the AWE1940 flight status page for this flight to view local times or setup timezone preferences in your user account.

Time Position Orientation Groundspeed Altitude Reporting Facility
EDT Latitude Longitude Course Direction KTS MPH feet Rate Location/Type
10:32PM 35.2328 -80.9392 72° East 158 182 1,500  Level Atlanta Center
10:32PM 35.2472 -80.9411 354° North 166 191 2,000 1,500 Climbing Atlanta Center
10:33PM 35.2839 -80.8992 43° Northeast 236 272 3,500 1,800 Climbing Atlanta Center
10:34PM 35.2936 -80.7969 83° East 260 299 5,800 2,520 Climbing Atlanta Center
10:35PM 35.3056 -80.6972 82° East 290 334 8,800 2,700 Climbing Atlanta Center
10:36PM 35.3153 -80.5925 83° East 305 351 11,200 1,860 Climbing Atlanta Center
10:37PM 35.3758 -80.3056 72° East  Level FlightAware Approximate
10:39PM 35.3806 -80.3125 74° East 393 452 15,000  Level Washington Center
10:40PM 35.4239 -80.1647 70° East 417 480 17,200 2,040 Climbing Washington Center
10:41PM 35.4625 -80.0267 71° East 422 486 19,100 1,800 Climbing Washington Center
10:42PM 35.4992 -79.8833 73° East 422 486 20,900 1,560 Climbing Washington Center
10:43PM 35.5356 -79.7372 73° East 432 497 22,300 1,260 Climbing Washington Center
10:44PM 35.5739 -79.5886 72° East 442 509 23,500 1,380 Climbing Washington Center
10:45PM 35.6189 -79.4297 71° East 473 544 25,100 1,380 Climbing Washington Center
10:46PM 35.6756 -79.2867 64° Northeast 473 544 26,300 1,140 Climbing Washington Center
10:47PM 35.7364 -79.1336 64° Northeast 479 551 27,400 960 Climbing Washington Center
10:48PM 35.7972 -78.9800 64° Northeast 489 563 28,300 900 Climbing Washington Center
10:49PM 35.8600 -78.8186 64° Northeast 502 578 29,200 900 Climbing Washington Center
10:50PM 35.9264 -78.6803 59° Northeast 507 583 30,200 1,140 Climbing Washington Center
10:51PM 36.0011 -78.5267 59° Northeast 513 590 31,500 1,080 Climbing Washington Center
10:52PM 36.0736 -78.3750 59° Northeast 513 590 32,400 960 Climbing Washington Center
10:53PM 36.1481 -78.2208 59° Northeast 519 597 33,400 1,020 Climbing Washington Center
10:54PM 36.2306 -78.0769 55° Northeast 519 597 34,500 780 Climbing Washington Center
10:55PM 36.3247 -77.9508 47° Northeast 509 586 35,000 240 Climbing Washington Center
10:56PM 36.4278 -77.8094 48° Northeast 504 580 35,000  Level Washington Center
10:57PM 36.5175 -77.6803 49° Northeast 497 572 35,000  Level Washington Center
10:58PM 36.6136 -77.5483 48° Northeast 503 579 35,000  Level Washington Center
10:59PM 36.7056 -77.4183 49° Northeast 503 579 35,000  Level Washington Center
11:00PM 36.7906 -77.3011 48° Northeast 503 579 35,000  Level Washington Center
11:01PM 36.8800 -77.1758 48° Northeast 503 579 35,000  Level Washington Center
11:02PM 36.9736 -77.0425 49° Northeast 503 579 35,000  Level Washington Center
11:03PM 37.0647 -76.9114 49° Northeast 503 579 35,000  Level Washington Center
11:04PM 37.1558 -76.7803 49° Northeast 503 579 35,000  Level Washington Center
11:05PM 37.2489 -76.6486 48° Northeast 503 579 35,000  Level Washington Center
11:06PM 37.3394 -76.5192 49° Northeast 503 579 35,000  Level Washington Center
11:07PM 37.4406 -76.3767 48° Northeast 503 579 35,000  Level Washington Center
11:08PM 37.5414 -76.2597 43° Northeast 497 572 35,000  Level Washington Center
11:09PM 37.6506 -76.1583 36° Northeast 487 560 35,000  Level Washington Center
11:10PM 37.7592 -76.0647 34° Northeast 482 555 35,000  Level Washington Center
11:11PM 37.8661 -75.9600 38° Northeast 482 555 35,000  Level Washington Center
11:12PM 37.9728 -75.8606 36° Northeast 482 555 35,000  Level Washington Center
11:13PM 38.0750 -75.7606 38° Northeast 482 555 35,000  Level Washington Center
11:14PM 38.1856 -75.6578 36° Northeast 482 555 35,000  Level Washington Center
11:15PM 38.2919 -75.5572 37° Northeast 482 555 35,000  Level Washington Center
11:16PM 38.4067 -75.4831 27° Northeast 469 540 35,000  Level Washington Center
11:17PM 38.5233 -75.4139 25° Northeast 459 528 35,000  Level Washington Center
11:18PM 38.6378 -75.3339 29° Northeast 459 528 35,000  Level Washington Center
11:19PM 38.7564 -75.2561 27° Northeast 459 528 35,000 -60 Level Washington Center
11:20PM 38.8708 -75.1783 28° Northeast 459 528 34,900 -1,500 Descending Washington Center
11:21PM 38.9789 -75.1136 25° Northeast 469 540 32,100 -2,580 Descending Washington Center
11:22PM 39.0975 -75.0325 28° Northeast 469 540 29,800 -1,620 Descending Washington Center
11:23PM 39.2097 -74.9542 28° Northeast 464 534 28,900 -300 Descending Washington Center
11:24PM 39.4167 -74.8153 27° Northeast 451 519 29,000  Climbing New York Center
11:25PM 39.5425 -74.7308 27° Northeast 444 511 29,000  Level New York Center
11:26PM 39.6428 -74.6639 27° Northeast 449 517 29,000  Level New York Center
11:27PM 39.7667 -74.5761 29° Northeast 454 522 29,000  Level New York Center
11:28PM 39.8794 -74.5011 27° Northeast 454 522 29,000 -60 Level New York Center
11:29PM 39.9947 -74.4206 28° Northeast 459 528 28,900 -720 Descending New York Center
11:30PM 40.1144 -74.3833 13° North 454 522 27,600 -1,020 Descending New York Center
11:32PM 40.3400 -74.3350 North 435 501 26,000 -600 Descending Boston Center
11:33PM 40.4614 -74.3083 North 429 494 26,000  Level Boston Center
11:34PM 40.5972 -74.2767 10° North 434 499 26,000  Level Boston Center
11:35PM 40.7206 -74.2528 North 439 505 26,000  Level Boston Center
11:36PM 40.8336 -74.2342 North 445 512 26,000  Level Boston Center
11:37PM 40.9528 -74.2072 10° North 445 512 26,000  Level Boston Center
11:38PM 41.0781 -74.1803 North 445 512 26,000  Level Boston Center
11:39PM 41.1994 -74.1533 North 445 512 26,000  Level Boston Center
11:40PM 41.3208 -74.1233 11° North 445 512 26,000  Level Boston Center
11:41PM 41.4419 -74.0961 10° North 445 512 26,000 -720 Level Boston Center
11:42PM 41.5675 -74.0661 10° North 452 520 24,600 -1,920 Descending Boston Center
11:43PM 41.6847 -74.0439 North 442 509 22,200 -2,460 Descending Boston Center
11:44PM 41.8081 -74.0164 North 436 502 19,700 -2,460 Descending Boston Center
11:45PM 41.8519 -74.0092 North 417 480 18,800 -1,800 Descending Boston Center
11:45PM 41.9083 -73.9939 11° North 404 465 17,900 -1,980 Descending Boston Center
11:46PM 42.0253 -73.9661 10° North 390 449 15,700 -2,160 Descending Boston Center
11:47PM 42.1194 -73.9486 North 385 443 13,600 -2,100 Descending Boston Center
11:48PM 42.2342 -73.9486 360° North 380 437 11,600 -1,440 Descending Boston Center
11:49PM 42.3175 -73.9536 357° North 349 402 10,800 -1,680 Descending Boston Center
11:50PM 42.4069 -73.9586 358° North 305 351 8,300 -2,400 Descending Boston Center
11:51PM 42.4819 -73.9658 356° North 294 338 6,000 -2,160 Descending Boston Center
11:52PM 42.5694 -73.9567 North 285 328 4,000 -1,020 Descending Boston Center
11:53PM 42.6406 -73.9472 North 275 316 4,000 -60 Level Boston Center
11:54PM 42.7031 -73.9375 North 246 283 3,900 -540 Descending Boston Center
11:55PM 42.7533 -73.9275 North 232 267 3,000 -900 Descending Boston Center
11:56PM 42.8078 -73.9117 12° North 212 244 2,100 -480 Descending Boston Center
11:57PM 42.8644 -73.8706 28° Northeast 195 224 2,000 -300 Descending Boston Center
11:58PM 42.8739 -73.7744 82° East 436 502 1,600 -480 Descending Boston Center